Time;durP1;ratioP1;P1;durP2;ratioP2;P2;SDS_P1;SDS_P2;PMS_P1;PMS_P2;Temp;Humidity;BMP_temperature;BMP_pressure;BME280_temperature;BME280_humidity;BME280_pressure;Samples;Min_cycle;Max_cycle;Signal;HPM_P1;HPM_P2
2022/04/27 00:00:13;;;;;;;17.73;11.40;;;8.90;79.60;;;;;;5034237;28;20047;-75
2022/04/27 00:02:39;;;;;;;18.48;12.23;;;8.90;79.40;;;;;;5033963;28;20478;-76
2022/04/27 00:05:05;;;;;;;17.10;10.85;;;8.90;79.60;;;;;;5033991;28;20028;-75
2022/04/27 00:07:31;;;;;;;14.85;10.68;;;8.80;80.00;;;;;;5034169;28;20026;-75
2022/04/27 00:09:56;;;;;;;15.50;10.05;;;8.80;80.10;;;;;;5032747;28;20103;-75
2022/04/27 00:12:22;;;;;;;15.82;10.75;;;8.90;80.10;;;;;;5034004;28;20025;-76
2022/04/27 00:14:48;;;;;;;14.48;10.13;;;8.90;79.90;;;;;;5033879;28;20106;-75
2022/04/27 00:17:14;;;;;;;13.38;8.98;;;9.00;79.60;;;;;;5033894;28;20036;-75
2022/04/27 00:19:39;;;;;;;12.45;8.48;;;8.90;79.50;;;;;;5033944;28;20360;-75
2022/04/27 00:22:05;;;;;;;10.77;7.88;;;8.90;79.50;;;;;;5033598;28;20033;-75
2022/04/27 00:24:30;;;;;;;12.07;8.38;;;8.90;79.60;;;;;;5033948;28;20024;-76
2022/04/27 00:26:56;;;;;;;12.13;8.35;;;8.90;79.50;;;;;;5033802;28;20053;-75
2022/04/27 00:29:21;;;;;;;11.98;8.40;;;8.80;79.40;;;;;;5033716;28;20018;-75
2022/04/27 00:31:47;;;;;;;11.30;8.38;;;8.80;79.40;;;;;;5033716;28;20479;-75
2022/04/27 00:34:12;;;;;;;9.73;7.53;;;8.80;79.50;;;;;;5033652;28;20438;-75
2022/04/27 00:36:38;;;;;;;11.05;7.47;;;8.70;79.70;;;;;;5033627;28;20049;-75
2022/04/27 00:39:04;;;;;;;10.75;7.80;;;8.50;80.30;;;;;;5033496;28;20189;-75
2022/04/27 00:41:30;;;;;;;11.95;8.05;;;8.40;80.80;;;;;;5033419;28;20069;-75
2022/04/27 00:43:55;;;;;;;10.02;7.25;;;8.30;81.40;;;;;;5033555;28;20018;-75
2022/04/27 00:46:21;;;;;;;10.00;7.10;;;8.20;81.80;;;;;;5033444;28;20060;-74
2022/04/27 00:48:46;;;;;;;11.20;7.95;;;8.20;82.00;;;;;;5033456;28;20021;-75
2022/04/27 00:51:16;;;;;;;8.10;6.35;;;8.20;82.20;;;;;;5033290;28;20068;-74
2022/04/27 00:53:42;;;;;;;9.98;6.55;;;8.30;82.00;;;;;;5033188;28;20419;-74
2022/04/27 00:56:09;;;;;;;9.60;6.95;;;8.30;81.70;;;;;;5033268;28;20025;-74
2022/04/27 00:58:34;;;;;;;11.40;6.38;;;8.30;81.70;;;;;;5033213;28;20028;-74
2022/04/27 01:01:00;;;;;;;10.68;6.85;;;8.20;81.60;;;;;;5033304;28;20022;-75
2022/04/27 01:03:25;;;;;;;8.82;7.00;;;8.10;82.30;;;;;;5033095;28;20029;-74
2022/04/27 01:05:51;;;;;;;9.07;6.40;;;8.00;82.70;;;;;;5033015;28;20018;-73
2022/04/27 01:08:20;;;;;;;9.20;6.68;;;8.00;83.00;;;;;;5033068;28;20034;-74
2022/04/27 01:10:50;;;;;;;10.65;6.95;;;8.00;83.00;;;;;;5032997;28;20464;-75
2022/04/27 01:13:16;;;;;;;10.15;7.35;;;8.00;83.00;;;;;;5033078;28;20029;-75
2022/04/27 01:15:42;;;;;;;9.85;6.82;;;7.90;83.40;;;;;;5032733;28;20025;-75
2022/04/27 01:18:11;;;;;;;10.98;7.68;;;7.90;83.70;;;;;;5033136;28;20064;-75
2022/04/27 01:20:38;;;;;;;10.60;6.32;;;7.90;84.00;;;;;;5033059;28;20113;-75
2022/04/27 01:23:05;;;;;;;7.90;6.03;;;8.00;83.90;;;;;;5032825;28;20509;-75
2022/04/27 01:25:57;;;;;;;8.65;6.13;;;8.10;83.70;;;;;;5032971;28;20395;-75
2022/04/27 01:28:30;;;;;;;10.00;6.57;;;8.20;83.30;;;;;;5033033;28;20024;-75
2022/04/27 01:31:00;;;;;;;9.90;7.03;;;8.20;82.40;;;;;;5032805;28;20490;-75
2022/04/27 01:33:27;;;;;;;9.93;7.03;;;8.10;82.70;;;;;;5032961;28;20032;-75
2022/04/27 01:35:53;;;;;;;8.95;6.63;;;8.10;82.90;;;;;;5036034;28;20049;-75
2022/04/27 01:38:20;;;;;;;8.93;6.22;;;8.10;82.90;;;;;;5036983;28;20034;-75
2022/04/27 01:40:46;;;;;;;9.43;5.70;;;8.20;82.70;;;;;;5036952;28;20028;-75
2022/04/27 01:43:15;;;;;;;8.90;6.63;;;8.30;82.70;;;;;;5036770;28;20121;-74
2022/04/27 01:45:45;;;;;;;7.97;6.15;;;8.40;82.40;;;;;;5036788;28;20018;-74
2022/04/27 01:48:11;;;;;;;7.93;6.07;;;8.40;82.20;;;;;;5036826;28;20426;-74
2022/04/27 01:50:38;;;;;;;8.10;6.35;;;8.40;82.10;;;;;;5036825;28;20104;-75
2022/04/27 01:55:48;;;;;;;5.77;4.63;;;8.50;81.90;;;;;;5037092;28;20047;-75
2022/04/27 01:58:15;;;;;;;9.52;6.50;;;8.40;81.20;;;;;;5036646;28;20468;-75
2022/04/27 02:00:40;;;;;;;11.00;6.25;;;8.50;81.40;;;;;;5036516;28;20017;-75
2022/04/27 02:03:06;;;;;;;10.95;7.70;;;8.40;81.40;;;;;;5036481;28;20041;-75
2022/04/27 02:05:31;;;;;;;9.10;6.80;;;8.40;81.50;;;;;;5036495;28;20014;-75
2022/04/27 02:07:58;;;;;;;9.98;7.90;;;8.40;81.70;;;;;;5036434;28;20033;-75
2022/04/27 02:10:23;;;;;;;9.05;6.75;;;8.30;81.80;;;;;;5036389;28;20013;-75
2022/04/27 02:12:49;;;;;;;8.30;6.45;;;8.30;82.00;;;;;;5036148;28;20021;-74
2022/04/27 02:15:15;;;;;;;10.15;7.70;;;8.40;82.00;;;;;;5036496;28;20160;-75
2022/04/27 02:17:41;;;;;;;8.50;6.60;;;8.40;81.60;;;;;;5036601;28;20021;-75
2022/04/27 02:20:08;;;;;;;13.82;8.07;;;8.40;81.70;;;;;;5042918;28;20017;-75
2022/04/27 02:22:34;;;;;;;10.18;7.53;;;8.30;81.80;;;;;;5037231;28;20029;-76
2022/04/27 02:25:01;;;;;;;10.98;7.47;;;8.20;82.20;;;;;;5037082;28;20024;-75
2022/04/27 02:28:10;;;;;;;12.77;7.72;;;8.20;82.40;;;;;;5035962;28;20026;-74
2022/04/27 02:30:36;;;;;;;10.38;7.60;;;8.30;82.60;;;;;;5035987;28;20494;-75
2022/04/27 02:33:02;;;;;;;8.73;6.75;;;8.30;82.30;;;;;;5035888;28;20029;-75
2022/04/27 02:35:28;;;;;;;11.18;7.43;;;8.30;82.20;;;;;;5035777;28;20538;-75
2022/04/27 02:37:54;;;;;;;11.82;8.30;;;8.30;82.30;;;;;;5035501;28;20195;-75
2022/04/27 02:40:19;;;;;;;9.90;7.68;;;8.30;82.50;;;;;;5035812;28;20025;-74
2022/04/27 02:42:45;;;;;;;13.60;9.13;;;8.40;82.30;;;;;;5035680;28;20419;-75
2022/04/27 02:45:10;;;;;;;10.63;8.20;;;8.40;82.00;;;;;;5035397;28;20029;-75
2022/04/27 02:47:36;;;;;;;10.15;8.07;;;8.40;81.70;;;;;;5034684;28;20025;-75
2022/04/27 02:52:49;;;;;;;11.52;8.43;;;8.50;82.00;;;;;;5035772;28;20033;-75
2022/04/27 02:55:15;;;;;;;9.05;7.25;;;8.50;81.80;;;;;;5035612;28;20025;-75
2022/04/27 02:57:41;;;;;;;10.70;7.50;;;8.40;81.60;;;;;;5035292;28;20026;-75
2022/04/27 03:00:07;;;;;;;8.57;6.85;;;8.40;81.60;;;;;;5035385;28;20033;-75
2022/04/27 03:02:33;;;;;;;12.45;7.00;;;8.40;81.70;;;;;;5035460;28;20038;-75
2022/04/27 03:05:00;;;;;;;9.63;7.18;;;8.40;81.70;;;;;;5035485;28;20100;-75
2022/04/27 03:07:26;;;;;;;9.68;7.32;;;8.50;81.90;;;;;;5035332;28;20056;-75
2022/04/27 03:09:52;;;;;;;11.13;8.10;;;8.40;81.60;;;;;;5035083;28;20032;-75
2022/04/27 03:12:17;;;;;;;12.75;8.48;;;8.50;81.70;;;;;;5035248;28;20085;-75
2022/04/27 03:14:43;;;;;;;11.02;8.15;;;8.50;81.70;;;;;;5035072;28;20099;-75
2022/04/27 03:17:08;;;;;;;11.38;7.80;;;8.50;81.70;;;;;;5035113;28;20037;-75
2022/04/27 03:19:34;;;;;;;10.73;8.15;;;8.60;81.80;;;;;;5035020;28;20483;-75
2022/04/27 03:22:00;;;;;;;11.43;8.50;;;8.60;81.70;;;;;;5034859;28;20079;-76
2022/04/27 03:24:25;;;;;;;11.90;8.60;;;8.60;81.60;;;;;;5035000;28;20032;-76
2022/04/27 03:26:51;;;;;;;12.60;9.48;;;8.50;82.50;;;;;;5034885;28;20022;-76
2022/04/27 03:29:16;;;;;;;12.40;8.77;;;8.50;81.80;;;;;;5034844;28;20029;-76
2022/04/27 03:31:42;;;;;;;10.68;8.07;;;8.50;82.10;;;;;;5034906;28;20033;-76
2022/04/27 03:34:08;;;;;;;13.40;8.88;;;8.50;82.00;;;;;;5034632;28;20032;-76
2022/04/27 03:36:34;;;;;;;11.80;8.45;;;8.50;81.90;;;;;;5034565;28;20129;-76
2022/04/27 03:38:59;;;;;;;15.80;11.27;;;8.60;81.90;;;;;;5034616;28;20017;-76
2022/04/27 03:41:27;;;;;;;21.40;12.73;;;8.50;81.90;;;;;;5034528;28;20021;-75
2022/04/27 03:43:53;;;;;;;20.60;11.93;;;8.50;82.00;;;;;;5033131;28;20063;-75
2022/04/27 03:46:19;;;;;;;14.15;9.30;;;8.60;81.80;;;;;;5034446;28;20031;-75
2022/04/27 03:48:46;;;;;;;12.82;9.30;;;8.60;81.70;;;;;;5034387;28;20503;-75
2022/04/27 03:51:12;;;;;;;12.00;9.02;;;8.60;81.70;;;;;;5034522;28;20018;-76
2022/04/27 03:53:39;;;;;;;11.82;9.02;;;8.60;81.60;;;;;;5034300;28;20427;-76
2022/04/27 03:56:05;;;;;;;11.90;8.43;;;8.60;81.50;;;;;;5034277;28;20060;-76
2022/04/27 03:58:31;;;;;;;11.07;7.88;;;8.60;81.50;;;;;;5032445;28;20032;-75
2022/04/27 04:00:57;;;;;;;11.38;8.05;;;8.70;81.70;;;;;;5034104;28;20025;-75
2022/04/27 04:03:22;;;;;;;11.75;8.80;;;8.70;81.60;;;;;;5034118;28;20060;-75
2022/04/27 04:05:48;;;;;;;11.00;8.43;;;8.70;81.60;;;;;;5033995;28;20501;-75
2022/04/27 04:08:14;;;;;;;12.38;9.25;;;8.70;81.40;;;;;;5032833;28;20506;-75
2022/04/27 04:10:40;;;;;;;12.98;9.18;;;8.70;81.00;;;;;;5034043;28;20025;-76
2022/04/27 04:13:05;;;;;;;13.73;9.80;;;8.50;81.10;;;;;;5034035;28;20056;-75
2022/04/27 04:15:32;;;;;;;19.42;11.25;;;8.50;81.70;;;;;;5034030;28;20053;-75
2022/04/27 04:17:57;;;;;;;14.50;9.98;;;8.40;81.90;;;;;;5033894;28;20025;-75
2022/04/27 04:20:23;;;;;;;18.95;12.60;;;8.50;82.00;;;;;;5033776;28;20371;-74
2022/04/27 04:22:49;;;;;;;21.00;12.52;;;8.50;81.90;;;;;;5033737;28;20372;-74
2022/04/27 04:30:45;;;;;;;14.50;9.98;;;8.50;81.60;;;;;;5034068;28;20040;-75
2022/04/27 04:33:11;;;;;;;12.65;9.18;;;8.60;81.80;;;;;;5033748;28;20115;-75
2022/04/27 04:35:37;;;;;;;12.40;9.32;;;8.60;81.90;;;;;;5033472;28;20483;-78
2022/04/27 04:38:04;;;;;;;13.07;9.68;;;8.60;81.90;;;;;;5033699;28;20068;-77
2022/04/27 04:40:30;;;;;;;11.70;8.68;;;8.60;81.90;;;;;;5033486;28;20021;-77
2022/04/27 04:42:56;;;;;;;13.60;8.77;;;8.60;81.80;;;;;;5033288;28;20044;-76
2022/04/27 04:45:23;;;;;;;12.77;9.45;;;8.70;82.00;;;;;;5033352;28;20100;-77
2022/04/27 04:47:49;;;;;;;12.90;8.77;;;8.70;82.10;;;;;;5033251;28;20113;-76
2022/04/27 04:50:14;;;;;;;10.07;7.78;;;8.70;81.80;;;;;;5033354;28;20475;-77
2022/04/27 04:52:40;;;;;;;10.25;8.00;;;8.70;81.70;;;;;;5032767;28;20337;-76
2022/04/27 04:55:06;;;;;;;9.18;7.10;;;8.80;81.40;;;;;;5033221;28;20526;-76
2022/04/27 04:57:31;;;;;;;10.23;8.13;;;8.90;81.50;;;;;;5033095;28;20119;-77
2022/04/27 04:59:58;;;;;;;10.07;7.80;;;8.90;81.00;;;;;;5033188;28;20021;-77
2022/04/27 05:02:23;;;;;;;11.38;8.57;;;9.10;80.80;;;;;;5033121;28;20116;-75
2022/04/27 05:04:50;;;;;;;9.15;7.32;;;9.10;80.20;;;;;;5033164;28;20100;-77
2022/04/27 05:07:18;;;;;;;11.45;8.40;;;9.20;79.90;;;;;;5032936;28;20072;-77
2022/04/27 05:09:44;;;;;;;13.48;9.43;;;9.20;79.60;;;;;;5032099;28;20017;-74
2022/04/27 05:12:09;;;;;;;14.70;9.70;;;9.20;78.80;;;;;;5032937;28;20392;-77
2022/04/27 05:14:35;;;;;;;10.00;7.90;;;9.00;79.00;;;;;;5032847;28;20076;-78
2022/04/27 05:17:01;;;;;;;12.27;9.05;;;8.90;79.10;;;;;;5032782;28;20039;-75
2022/04/27 05:19:26;;;;;;;13.07;9.40;;;8.90;79.30;;;;;;5032639;28;20028;-77
2022/04/27 05:21:52;;;;;;;16.33;9.82;;;8.90;79.50;;;;;;5031231;28;20052;-77
2022/04/27 05:24:17;;;;;;;12.48;8.82;;;8.80;79.50;;;;;;5032467;28;20407;-75
2022/04/27 05:26:43;;;;;;;11.35;8.45;;;8.90;79.50;;;;;;5032177;28;20022;-77
2022/04/27 05:31:57;;;;;;;10.25;7.63;;;8.90;79.70;;;;;;5032591;28;20121;-75
2022/04/27 05:34:24;;;;;;;15.32;10.68;;;9.00;79.80;;;;;;5032708;28;20029;-76
2022/04/27 05:36:50;;;;;;;15.85;10.77;;;9.00;79.90;;;;;;5032387;28;20059;-74
2022/04/27 05:39:16;;;;;;;12.48;9.20;;;9.00;79.90;;;;;;5032757;28;20026;-78
2022/04/27 05:41:41;;;;;;;15.07;10.95;;;9.00;80.00;;;;;;5033222;28;20498;-75
2022/04/27 05:44:09;;;;;;;16.48;11.32;;;9.10;80.40;;;;;;5034394;28;20025;-77
2022/04/27 05:46:39;;;;;;;15.15;10.82;;;9.10;80.30;;;;;;5043051;28;20018;-77
2022/04/27 05:49:05;;;;;;;15.80;11.48;;;9.20;80.20;;;;;;5051941;28;20032;-75
2022/04/27 05:51:31;;;;;;;17.58;12.27;;;9.20;80.10;;;;;;5052617;28;20016;-75
2022/04/27 05:53:57;;;;;;;14.35;10.50;;;9.20;80.00;;;;;;5053813;28;20014;-77
2022/04/27 05:56:23;;;;;;;14.18;10.20;;;9.10;79.80;;;;;;5037496;28;20029;-76
2022/04/27 05:58:49;;;;;;;13.20;9.70;;;9.10;79.80;;;;;;5034039;28;20390;-77
2022/04/27 06:01:15;;;;;;;13.07;9.90;;;9.10;79.80;;;;;;5033716;28;20018;-77
2022/04/27 06:03:41;;;;;;;13.07;9.80;;;9.10;79.90;;;;;;5033406;28;20549;-77
2022/04/27 06:06:07;;;;;;;12.77;9.65;;;9.10;79.70;;;;;;5033869;28;20022;-77
2022/04/27 06:08:32;;;;;;;14.60;10.68;;;9.10;79.50;;;;;;5033770;28;20021;-76
2022/04/27 06:10:58;;;;;;;11.25;8.80;;;9.20;78.90;;;;;;5033576;28;20037;-77
2022/04/27 06:13:24;;;;;;;14.63;10.93;;;9.20;79.20;;;;;;5033528;28;20025;-77
2022/04/27 06:15:50;;;;;;;12.60;9.90;;;9.30;78.50;;;;;;5032935;28;20464;-75
2022/04/27 06:18:16;;;;;;;12.77;9.45;;;9.30;78.30;;;;;;5035619;28;20036;-79
2022/04/27 06:20:42;;;;;;;15.50;10.18;;;9.30;77.80;;;;;;5034490;28;20029;-77
2022/04/27 06:23:09;;;;;;;12.77;9.88;;;9.40;77.60;;;;;;5038832;28;20128;-76
2022/04/27 06:25:35;;;;;;;12.63;9.90;;;9.50;77.40;;;;;;5039185;28;20021;-79
2022/04/27 06:28:01;;;;;;;16.23;11.57;;;9.60;77.10;;;;;;5043805;28;20113;-83
2022/04/27 06:30:27;;;;;;;15.82;10.80;;;9.60;76.90;;;;;;5038791;28;20049;-79
2022/04/27 06:32:53;;;;;;;13.45;9.85;;;9.70;76.60;;;;;;5035512;28;20076;-78
2022/04/27 06:35:18;;;;;;;13.85;9.30;;;9.70;76.10;;;;;;5038585;28;20030;-78
2022/04/27 06:37:44;;;;;;;11.93;8.38;;;9.80;75.80;;;;;;5037668;28;20049;-78
2022/04/27 06:40:10;;;;;;;11.57;8.43;;;9.90;75.40;;;;;;5037051;28;20049;-77
2022/04/27 06:42:36;;;;;;;12.23;7.97;;;9.90;74.60;;;;;;5038197;28;20030;-78
2022/04/27 06:45:03;;;;;;;8.98;6.93;;;9.90;73.90;;;;;;5036456;28;20022;-77
2022/04/27 06:47:29;;;;;;;9.13;7.22;;;10.00;74.00;;;;;;5038843;28;20048;-78
2022/04/27 06:49:54;;;;;;;10.05;7.35;;;10.00;72.90;;;;;;5036924;28;20096;-78
2022/04/27 06:52:20;;;;;;;10.45;7.60;;;9.80;73.10;;;;;;5036049;28;20025;-77
2022/04/27 06:54:45;;;;;;;9.13;6.53;;;9.50;75.40;;;;;;5036920;28;20049;-74
2022/04/27 06:57:11;;;;;;;10.68;5.65;;;9.60;77.10;;;;;;5035672;28;20018;-75
2022/04/27 06:59:37;;;;;;;9.13;4.75;;;10.30;88.10;;;;;;5035449;28;20079;-71
2022/04/27 07:02:03;;;;;;;7.15;5.10;;;10.60;82.00;;;;;;5034982;28;20109;-75
2022/04/27 07:04:31;;;;;;;4.28;3.58;;;10.90;76.50;;;;;;5035082;28;20033;-73
2022/04/27 07:06:57;;;;;;;6.00;3.70;;;11.20;72.70;;;;;;5035208;28;20061;-74
2022/04/27 07:09:23;;;;;;;5.55;3.50;;;11.60;70.30;;;;;;5035318;28;20061;-75
2022/04/27 07:11:49;;;;;;;4.32;3.45;;;11.90;68.10;;;;;;5035105;28;20542;-75
2022/04/27 07:14:16;;;;;;;3.70;3.10;;;12.20;66.50;;;;;;5034907;28;20025;-74
2022/04/27 07:16:44;;;;;;;3.08;2.78;;;12.50;64.70;;;;;;5034957;28;20028;-74
2022/04/27 07:19:10;;;;;;;3.05;2.70;;;12.80;62.80;;;;;;5034865;28;20032;-74
2022/04/27 07:21:35;;;;;;;3.35;2.58;;;13.10;60.10;;;;;;5034709;28;20383;-73
2022/04/27 07:24:02;;;;;;;3.63;2.78;;;13.10;58.60;;;;;;5035122;28;20506;-71
2022/04/27 07:26:29;;;;;;;5.18;3.20;;;13.20;59.50;;;;;;5034707;28;20491;-76
2022/04/27 07:28:57;;;;;;;4.45;3.28;;;13.30;58.60;;;;;;5034810;28;20052;-74
2022/04/27 07:31:23;;;;;;;2.83;2.58;;;13.50;58.50;;;;;;5034598;28;20387;-74
2022/04/27 07:33:48;;;;;;;3.30;2.78;;;13.70;57.50;;;;;;5033798;28;20034;-73
2022/04/27 07:36:14;;;;;;;3.25;2.95;;;13.80;55.90;;;;;;5034372;28;20049;-74
2022/04/27 07:38:40;;;;;;;5.38;2.95;;;14.10;54.80;;;;;;5034862;28;20029;-74
2022/04/27 07:41:07;;;;;;;3.20;2.75;;;14.30;54.40;;;;;;5034181;28;20029;-74
2022/04/27 07:43:33;;;;;;;4.47;2.22;;;14.40;53.00;;;;;;5034030;28;20073;-72
2022/04/27 07:46:00;;;;;;;2.67;2.47;;;14.60;51.10;;;;;;5034167;28;20071;-75
2022/04/27 07:48:32;;;;;;;2.58;2.25;;;14.70;50.30;;;;;;5034183;28;20028;-78
2022/04/27 07:51:06;;;;;;;2.45;2.25;;;14.70;49.20;;;;;;5033021;28;20021;-78
2022/04/27 07:53:31;;;;;;;2.42;2.22;;;14.60;48.80;;;;;;5033497;28;20017;-77
2022/04/27 07:55:57;;;;;;;3.30;2.70;;;14.70;50.10;;;;;;5033370;28;20032;-77
2022/04/27 07:58:22;;;;;;;2.30;2.10;;;14.50;50.00;;;;;;5032956;28;20044;-77
2022/04/27 08:00:48;;;;;;;4.10;2.70;;;14.10;49.90;;;;;;5032857;28;20033;-77
2022/04/27 08:03:14;;;;;;;2.58;2.38;;;13.90;49.60;;;;;;5032732;28;20040;-77
2022/04/27 08:05:39;;;;;;;2.90;2.60;;;13.70;51.30;;;;;;5032938;28;20083;-77
2022/04/27 08:08:08;;;;;;;4.47;2.70;;;13.50;53.00;;;;;;5032865;28;20025;-76
2022/04/27 08:10:35;;;;;;;2.33;2.13;;;13.10;53.80;;;;;;5032414;28;20539;-75
2022/04/27 08:13:00;;;;;;;3.17;2.85;;;13.10;54.80;;;;;;5032512;28;20025;-75
2022/04/27 08:15:26;;;;;;;5.80;3.17;;;13.10;54.20;;;;;;5032407;28;20105;-75
2022/04/27 08:17:54;;;;;;;3.92;3.25;;;13.00;55.20;;;;;;5032293;28;20021;-75
2022/04/27 08:23:10;;;;;;;4.03;3.63;;;12.80;55.90;;;;;;5031715;28;20403;-75
2022/04/27 08:25:36;;;;;;;4.78;3.90;;;12.70;56.20;;;;;;5032184;28;20340;-76
2022/04/27 08:28:06;;;;;;;4.80;4.07;;;12.40;57.50;;;;;;5032414;28;20022;-77
2022/04/27 08:30:36;;;;;;;7.60;4.18;;;12.30;58.30;;;;;;5032232;28;20021;-76
2022/04/27 08:33:05;;;;;;;4.63;2.90;;;12.10;58.20;;;;;;5033442;28;20033;-76
2022/04/27 08:35:31;;;;;;;3.08;2.50;;;11.90;58.80;;;;;;5032141;28;20480;-76
2022/04/27 08:38:01;;;;;;;4.25;3.15;;;12.00;59.60;;;;;;5032970;28;20104;-75
2022/04/27 08:40:28;;;;;;;2.72;2.42;;;12.10;59.40;;;;;;5015695;28;20025;-76
2022/04/27 08:42:55;;;;;;;4.90;3.70;;;12.20;58.80;;;;;;5033004;28;20393;-76
2022/04/27 08:45:23;;;;;;;3.88;3.47;;;12.20;59.00;;;;;;5031106;28;20093;-76
2022/04/27 08:47:50;;;;;;;3.60;3.15;;;12.20;58.70;;;;;;5005923;28;20037;-76
2022/04/27 08:50:21;;;;;;;5.45;4.30;;;12.10;59.00;;;;;;5028060;28;20040;-77
2022/04/27 08:52:48;;;;;;;4.43;3.28;;;11.90;60.20;;;;;;5028410;28;20084;-75
2022/04/27 08:55:14;;;;;;;4.45;3.20;;;11.80;60.10;;;;;;5013137;28;20022;-75
2022/04/27 08:57:41;;;;;;;5.68;3.28;;;11.70;60.20;;;;;;5012059;28;20480;-74
2022/04/27 09:00:08;;;;;;;5.35;2.78;;;11.90;60.10;;;;;;5012020;28;20396;-76
2022/04/27 09:02:35;;;;;;;4.63;3.60;;;12.00;59.60;;;;;;5012956;28;20034;-76
2022/04/27 09:05:18;;;;;;;3.95;3.25;;;12.20;59.50;;;;;;5026832;28;20041;-76
2022/04/27 09:08:05;;;;;;;5.22;3.30;;;12.40;59.60;;;;;;5027868;28;20026;-76
2022/04/27 09:10:31;;;;;;;4.25;3.13;;;12.50;58.80;;;;;;5027540;28;20488;-77
2022/04/27 09:12:58;;;;;;;3.05;2.60;;;12.40;58.50;;;;;;5027672;28;20120;-77
2022/04/27 09:15:26;;;;;;;4.68;2.85;;;12.60;58.00;;;;;;5011911;28;20049;-76
2022/04/27 09:20:47;;;;;;;;;;;12.90;58.00;;;;;;5013469;28;20141;-76
2022/04/27 09:23:21;;;;;;;3.28;2.60;;;13.00;57.10;;;;;;5012908;28;20009;-77
2022/04/27 09:25:47;;;;;;;2.22;2.03;;;13.10;55.30;;;;;;5027696;28;20037;-77
2022/04/27 09:28:15;;;;;;;2.30;2.10;;;13.30;55.10;;;;;;5012785;28;20026;-77
2022/04/27 09:30:43;;;;;;;2.33;1.90;;;13.40;54.70;;;;;;5011689;28;20034;-77
2022/04/27 09:33:11;;;;;;;2.53;2.00;;;13.40;54.10;;;;;;5028702;28;20522;-77
2022/04/27 09:35:37;;;;;;;1.88;1.70;;;13.50;53.10;;;;;;5012927;28;20025;-77
2022/04/27 09:38:19;;;;;;;2.15;1.90;;;14.00;52.80;;;;;;5028129;28;20046;-76
2022/04/27 09:40:50;;;;;;;4.65;2.97;;;14.40;52.50;;;;;;5012643;28;20409;-76
2022/04/27 09:43:17;;;;;;;3.72;2.20;;;14.50;51.20;;;;;;5011820;28;20046;-76
2022/04/27 09:45:44;;;;;;;1.50;1.30;;;14.60;50.80;;;;;;5027923;28;20026;-76
2022/04/27 09:48:17;;;;;;;1.52;1.42;;;14.80;48.80;;;;;;4995347;28;20076;-76
2022/04/27 09:51:01;;;;;;;1.42;1.33;;;14.90;47.50;;;;;;5011247;28;20472;-75
2022/04/27 09:53:28;;;;;;;1.80;1.48;;;15.10;46.90;;;;;;5023267;28;20036;-76
2022/04/27 09:55:59;;;;;;;1.48;1.38;;;15.10;45.70;;;;;;5049453;28;20045;-75
2022/04/27 09:58:26;;;;;;;1.90;1.67;;;15.00;45.30;;;;;;5036826;28;20018;-75
2022/04/27 10:00:56;;;;;;;1.92;1.50;;;15.10;45.10;;;;;;5032149;28;20484;-76
2022/04/27 10:03:24;;;;;;;2.35;1.58;;;15.10;45.00;;;;;;5050459;28;20034;-76
2022/04/27 10:05:50;;;;;;;1.60;1.50;;;15.10;45.50;;;;;;5014404;28;20010;-78
2022/04/27 10:08:19;;;;;;;1.40;1.00;;;15.10;45.20;;;;;;5033577;28;20437;-76
2022/04/27 10:10:45;;;;;;;2.40;1.63;;;15.00;45.10;;;;;;5020647;28;20113;-77
2022/04/27 10:13:13;;;;;;;1.48;1.38;;;15.10;45.70;;;;;;5025159;28;20025;-76
2022/04/27 10:15:48;;;;;;;1.35;1.02;;;15.30;45.00;;;;;;5031269;28;20025;-76
2022/04/27 10:18:18;;;;;;;2.00;1.37;;;15.20;44.50;;;;;;5034079;28;20108;-75
2022/04/27 10:20:48;;;;;;;1.38;1.27;;;15.20;44.20;;;;;;5034267;28;20025;-76
2022/04/27 10:23:31;;;;;;;1.95;1.35;;;15.20;43.90;;;;;;5034689;28;20037;-76
2022/04/27 10:26:09;;;;;;;3.75;2.10;;;15.20;44.50;;;;;;5035913;28;20025;-76
2022/04/27 10:28:57;;;;;;;1.85;1.65;;;15.20;45.60;;;;;;5034227;28;20032;-76
2022/04/27 10:31:53;;;;;;;3.55;1.80;;;15.30;46.20;;;;;;5035337;28;20487;-76
2022/04/27 10:34:23;;;;;;;1.30;1.20;;;15.40;45.70;;;;;;5032372;28;20056;-79
2022/04/27 10:36:51;;;;;;;2.05;1.15;;;15.40;46.00;;;;;;5016210;28;20049;-77
2022/04/27 10:39:20;;;;;;;1.35;1.23;;;15.40;45.50;;;;;;5014926;28;20078;-77
2022/04/27 10:42:28;;;;;;;1.35;1.10;;;15.40;45.40;;;;;;5014316;28;20603;-76
2022/04/27 10:44:54;;;;;;;1.42;1.23;;;15.50;45.20;;;;;;5015514;28;20030;-77
2022/04/27 10:47:22;;;;;;;1.67;1.58;;;15.50;43.90;;;;;;5013777;28;20022;-79
2022/04/27 10:50:08;;;;;;;3.70;2.97;;;15.40;42.90;;;;;;5023669;28;20040;-74
2022/04/27 10:52:44;;;;;;;7.43;4.72;;;15.30;45.10;;;;;;5034784;28;20068;-79
2022/04/27 10:55:35;;;;;;;5.97;5.32;;;14.80;49.00;;;;;;5017631;28;20464;-76
2022/04/27 10:58:24;;;;;;;6.20;5.20;;;14.20;51.60;;;;;;5032769;28;20029;-75
2022/04/27 11:01:09;;;;;;;6.55;5.65;;;14.10;53.00;;;;;;5034299;28;20075;-76
2022/04/27 11:03:38;;;;;;;7.70;4.97;;;14.00;53.40;;;;;;5034867;28;20040;-74
2022/04/27 11:06:06;;;;;;;5.53;4.55;;;14.00;53.10;;;;;;5033715;28;20027;-75
2022/04/27 11:09:08;;;;;;;5.43;4.53;;;13.90;53.30;;;;;;5032611;28;20029;-76
2022/04/27 11:11:52;;;;;;;5.65;4.07;;;13.90;53.40;;;;;;4975121;28;20039;-75
2022/04/27 11:14:26;;;;;;;5.60;4.57;;;13.90;53.40;;;;;;4974494;28;20508;-76
2022/04/27 11:16:52;;;;;;;4.45;3.60;;;13.90;53.00;;;;;;4974793;28;20019;-73
2022/04/27 11:19:18;;;;;;;4.43;3.60;;;14.00;53.50;;;;;;4976030;28;20030;-77
2022/04/27 11:21:44;;;;;;;3.92;3.35;;;14.10;53.40;;;;;;4974202;28;20058;-75
2022/04/27 11:24:11;;;;;;;4.97;3.70;;;14.30;53.20;;;;;;4974839;28;20473;-75
2022/04/27 11:26:47;;;;;;;3.65;3.30;;;14.40;52.10;;;;;;4975881;28;20031;-76
2022/04/27 11:29:14;;;;;;;4.82;3.17;;;14.30;51.40;;;;;;4974772;28;20033;-76
2022/04/27 11:31:44;;;;;;;3.33;2.83;;;14.20;52.30;;;;;;4974630;28;20547;-77
2022/04/27 11:34:23;;;;;;;5.05;3.45;;;14.20;51.50;;;;;;4975614;28;20035;-75
2022/04/27 11:36:50;;;;;;;2.90;2.47;;;14.30;51.60;;;;;;4974261;28;20047;-76
2022/04/27 11:39:24;;;;;;;2.72;2.22;;;14.40;51.30;;;;;;4973441;28;20078;-76
2022/04/27 11:42:00;;;;;;;5.18;2.67;;;14.90;51.10;;;;;;4955517;28;20051;-76
2022/04/27 11:44:30;;;;;;;3.83;2.83;;;15.20;49.30;;;;;;4956681;28;20027;-77
2022/04/27 11:46:57;;;;;;;3.03;2.70;;;15.30;47.90;;;;;;4955090;29;20031;-77
2022/04/27 11:49:23;;;;;;;4.03;3.13;;;15.10;47.90;;;;;;4955242;28;20039;-76
2022/04/27 11:51:49;;;;;;;3.42;2.67;;;15.20;48.10;;;;;;4957250;29;20359;-76
2022/04/27 11:54:31;;;;;;;3.00;2.75;;;15.20;48.70;;;;;;4956730;28;20038;-77
2022/04/27 11:57:01;;;;;;;3.25;2.83;;;15.40;48.30;;;;;;4971506;28;20386;-75
2022/04/27 11:59:42;;;;;;;4.75;2.65;;;15.10;48.00;;;;;;4956548;28;20062;-76
2022/04/27 12:02:09;;;;;;;3.10;2.58;;;14.90;48.40;;;;;;4956821;28;20032;-74
2022/04/27 12:04:41;;;;;;;3.00;2.45;;;14.80;49.50;;;;;;4955225;28;20055;-76
2022/04/27 12:07:12;;;;;;;2.60;2.40;;;14.80;49.80;;;;;;4955192;28;20485;-76
2022/04/27 12:09:37;;;;;;;3.28;2.08;;;15.00;49.20;;;;;;4955157;28;20106;-76
2022/04/27 12:12:11;;;;;;;4.03;2.85;;;15.20;49.20;;;;;;4971698;28;20070;-76
2022/04/27 12:14:41;;;;;;;5.22;2.65;;;15.20;48.60;;;;;;4954746;29;20031;-75
2022/04/27 12:17:07;;;;;;;5.65;2.45;;;15.20;49.20;;;;;;4970881;28;20030;-76
2022/04/27 12:19:36;;;;;;;3.08;2.53;;;15.20;48.60;;;;;;4956199;28;20434;-74
2022/04/27 12:22:13;;;;;;;4.07;1.95;;;15.20;47.30;;;;;;4954895;28;20118;-74
2022/04/27 12:24:43;;;;;;;3.38;2.50;;;15.30;46.50;;;;;;4955280;28;20042;-75
2022/04/27 12:27:23;;;;;;;3.20;2.13;;;15.30;46.00;;;;;;4955206;28;20371;-75
2022/04/27 12:30:02;;;;;;;2.92;2.15;;;15.30;45.00;;;;;;4956076;29;20502;-76
2022/04/27 12:32:33;;;;;;;3.08;1.98;;;15.30;45.10;;;;;;4954331;28;20059;-76
2022/04/27 12:37:50;;;;;;;3.92;2.40;;;15.20;44.50;;;;;;4954742;28;20078;-76
2022/04/27 12:40:16;;;;;;;2.97;2.65;;;15.20;44.30;;;;;;4955090;28;20470;-76
2022/04/27 12:43:05;;;;;;;2.40;2.20;;;15.20;45.00;;;;;;4955346;28;20043;-76
2022/04/27 12:45:32;;;;;;;3.65;2.38;;;15.30;45.60;;;;;;4955259;28;20027;-76
2022/04/27 12:47:58;;;;;;;3.13;2.42;;;15.20;44.90;;;;;;4953860;28;20098;-76
2022/04/27 12:50:24;;;;;;;3.63;2.30;;;15.20;45.20;;;;;;4954867;28;20097;-75
2022/04/27 12:52:50;;;;;;;4.20;2.38;;;15.20;44.80;;;;;;4955072;29;20078;-74
2022/04/27 12:55:17;;;;;;;2.55;2.35;;;15.20;44.40;;;;;;4953988;28;20081;-75
2022/04/27 12:57:55;;;;;;;2.17;1.98;;;15.30;44.90;;;;;;4953716;28;20024;-74
2022/04/27 13:00:41;;;;;;;2.40;1.92;;;15.50;44.70;;;;;;4953892;29;20077;-74
2022/04/27 13:03:10;;;;;;;2.85;2.10;;;15.70;44.70;;;;;;4969961;28;20039;-74
2022/04/27 13:05:41;;;;;;;3.97;2.17;;;15.90;43.40;;;;;;4955053;28;20381;-75
2022/04/27 13:08:10;;;;;;;3.78;2.00;;;16.20;42.20;;;;;;4953778;28;20397;-75
2022/04/27 13:13:22;;;;;;;;;;;17.00;40.70;;;;;;4955572;29;20042;-75
2022/04/27 13:15:49;;;;;;;;;;;17.30;39.20;;;;;;4955113;28;19906;-75
2022/04/27 13:18:15;;;;;;;4.10;2.30;;;17.60;38.20;;;;;;4954894;28;20424;-75